Time;durP1;ratioP1;P1;durP2;ratioP2;P2;SDS_P1;SDS_P2;PMS_P1;PMS_P2;Temp;Humidity;BMP_temperature;BMP_pressure;BME280_temperature;BME280_humidity;BME280_pressure;Samples;Min_cycle;Max_cycle;Signal;HPM_P1;HPM_P2
2022/05/05 00:01:36;;;;;;;;;8.00;8.00;;;;;;;;5022412;28;9592;-75
2022/05/05 00:04:04;;;;;;;;;8.00;6.25;;;;;;;;5041164;28;9706;-75
2022/05/05 00:06:32;;;;;;;;;5.50;5.50;;;;;;;;5039557;28;9582;-76
2022/05/05 00:08:59;;;;;;;;;6.50;6.50;;;;;;;;5041000;28;9641;-75
2022/05/05 00:14:24;;;;;;;;;8.50;8.00;;;;;;;;5039753;28;9714;-75
2022/05/05 00:16:53;;;;;;;;;7.50;5.50;;;;;;;;5041376;28;9634;-75
2022/05/05 00:19:21;;;;;;;;;9.75;9.50;;;;;;;;5041162;28;9740;-76
2022/05/05 00:21:48;;;;;;;;;10.50;9.00;;;;;;;;5042794;28;9884;-77
2022/05/05 00:24:16;;;;;;;;;8.25;8.25;;;;;;;;5037063;28;9722;-76
2022/05/05 00:26:44;;;;;;;;;7.50;7.50;;;;;;;;5041681;28;10530;-76
2022/05/05 00:29:11;;;;;;;;;7.00;6.25;;;;;;;;5038089;28;9799;-76
2022/05/05 00:31:38;;;;;;;;;8.50;7.50;;;;;;;;5040074;28;9748;-76
2022/05/05 00:34:07;;;;;;;;;7.75;4.50;;;;;;;;5041721;28;9785;-76
2022/05/05 00:36:34;;;;;;;;;5.00;5.00;;;;;;;;5041674;28;9873;-76
2022/05/05 00:39:02;;;;;;;;;8.75;8.25;;;;;;;;5041518;28;10001;-75
2022/05/05 00:41:33;;;;;;;;;4.75;4.75;;;;;;;;5030800;28;9988;-77
2022/05/05 00:44:01;;;;;;;;;7.00;4.25;;;;;;;;5034156;28;9855;-76
2022/05/05 00:46:28;;;;;;;;;8.00;8.00;;;;;;;;5038381;28;10880;-76
2022/05/05 00:48:56;;;;;;;;;7.75;7.75;;;;;;;;5039443;28;10136;-76
2022/05/05 00:51:24;;;;;;;;;7.00;7.00;;;;;;;;5040315;28;10037;-77
2022/05/05 00:53:54;;;;;;;;;6.75;6.75;;;;;;;;5038464;28;10295;-77
2022/05/05 00:56:22;;;;;;;;;3.00;3.00;;;;;;;;5034202;28;10151;-76
2022/05/05 00:58:50;;;;;;;;;5.75;5.75;;;;;;;;5018635;28;10192;-77
2022/05/05 01:01:20;;;;;;;;;8.50;7.00;;;;;;;;5039703;28;10242;-77
2022/05/05 01:03:47;;;;;;;;;6.75;6.75;;;;;;;;5040525;28;10402;-78
2022/05/05 01:06:15;;;;;;;;;4.75;4.00;;;;;;;;5043599;28;10317;-76
2022/05/05 01:08:44;;;;;;;;;6.00;6.00;;;;;;;;5044476;28;10352;-76
2022/05/05 01:11:11;;;;;;;;;6.75;6.75;;;;;;;;5044439;28;10393;-76
2022/05/05 01:13:39;;;;;;;;;8.00;8.00;;;;;;;;5026971;28;10407;-77
2022/05/05 01:16:06;;;;;;;;;7.00;7.00;;;;;;;;5042962;28;11293;-76
2022/05/05 01:18:34;;;;;;;;;7.00;7.00;;;;;;;;5040557;28;10552;-77
2022/05/05 01:21:01;;;;;;;;;8.00;6.50;;;;;;;;5043781;28;10559;-76
2022/05/05 01:23:30;;;;;;;;;8.00;6.50;;;;;;;;5040031;28;10604;-76
2022/05/05 01:28:45;;;;;;;;;7.25;7.25;;;;;;;;5042230;28;10583;-76
2022/05/05 01:31:13;;;;;;;;;8.50;8.50;;;;;;;;5043268;28;10404;-76
2022/05/05 01:33:40;;;;;;;;;9.00;7.00;;;;;;;;5041630;28;10676;-76
2022/05/05 01:36:08;;;;;;;;;6.25;6.25;;;;;;;;5042829;28;10581;-75
2022/05/05 01:38:37;;;;;;;;;7.00;7.00;;;;;;;;5037947;28;10649;-76
2022/05/05 01:41:06;;;;;;;;;7.00;7.00;;;;;;;;5037476;28;10710;-76
2022/05/05 01:43:33;;;;;;;;;7.25;5.00;;;;;;;;5042777;28;10656;-76
2022/05/05 01:46:01;;;;;;;;;7.50;6.25;;;;;;;;5040479;28;10766;-77
2022/05/05 01:48:28;;;;;;;;;6.50;5.00;;;;;;;;5036567;28;10649;-76
2022/05/05 01:50:56;;;;;;;;;6.00;6.00;;;;;;;;5042450;28;10654;-76
2022/05/05 01:53:23;;;;;;;;;6.75;6.50;;;;;;;;5042400;28;10514;-76
2022/05/05 01:55:52;;;;;;;;;6.00;5.50;;;;;;;;5043697;28;10620;-75
2022/05/05 01:58:19;;;;;;;;;6.00;6.00;;;;;;;;5041218;28;10606;-76
2022/05/05 02:00:46;;;;;;;;;6.25;6.25;;;;;;;;5040806;28;10600;-76
2022/05/05 02:03:14;;;;;;;;;6.00;6.00;;;;;;;;5036398;28;10634;-76
2022/05/05 02:05:42;;;;;;;;;6.00;6.00;;;;;;;;5043150;28;10700;-76
2022/05/05 02:08:09;;;;;;;;;5.00;3.25;;;;;;;;5040971;28;10667;-75
2022/05/05 02:10:37;;;;;;;;;6.00;6.00;;;;;;;;5042865;28;10619;-75
2022/05/05 02:13:07;;;;;;;;;5.50;5.50;;;;;;;;5040669;28;10631;-75
2022/05/05 02:15:34;;;;;;;;;7.25;7.00;;;;;;;;5043550;28;11514;-76
2022/05/05 02:18:09;;;;;;;;;6.25;6.25;;;;;;;;5041719;28;10760;-76
2022/05/05 02:20:37;;;;;;;;;8.00;6.50;;;;;;;;5042886;28;10728;-76
2022/05/05 02:23:04;;;;;;;;;6.75;6.75;;;;;;;;5043669;28;10942;-76
2022/05/05 02:25:32;;;;;;;;;8.00;6.50;;;;;;;;5041263;28;11155;-75
2022/05/05 02:27:59;;;;;;;;;5.00;4.00;;;;;;;;5023130;28;11117;-77
2022/05/05 02:30:28;;;;;;;;;8.50;7.25;;;;;;;;5039111;28;11097;-75
2022/05/05 02:32:56;;;;;;;;;6.75;6.50;;;;;;;;5042045;28;11253;-75
2022/05/05 02:35:23;;;;;;;;;8.50;7.00;;;;;;;;5024580;28;11106;-74
2022/05/05 02:40:36;;;;;;;;;6.25;6.25;;;;;;;;5044459;28;10882;-76
2022/05/05 02:43:03;;;;;;;;;10.00;6.50;;;;;;;;5035128;28;11062;-75
2022/05/05 02:45:33;;;;;;;;;7.75;7.00;;;;;;;;5038617;28;11003;-75
2022/05/05 02:48:00;;;;;;;;;9.25;8.25;;;;;;;;5034699;28;10952;-76
2022/05/05 02:50:28;;;;;;;;;7.00;7.00;;;;;;;;5042335;28;10840;-75
2022/05/05 02:52:55;;;;;;;;;10.00;9.00;;;;;;;;5042954;28;10699;-75
2022/05/05 02:55:22;;;;;;;;;7.25;7.25;;;;;;;;5042934;28;10847;-76
2022/05/05 02:57:49;;;;;;;;;11.00;7.75;;;;;;;;5043257;28;10831;-75
2022/05/05 03:00:17;;;;;;;;;7.50;5.50;;;;;;;;5041523;28;11664;-75
2022/05/05 03:02:46;;;;;;;;;10.00;10.00;;;;;;;;5037047;28;10771;-75
2022/05/05 03:05:14;;;;;;;;;13.00;11.25;;;;;;;;5039082;28;10903;-76
2022/05/05 03:07:42;;;;;;;;;8.00;8.00;;;;;;;;5041613;28;11636;-76
2022/05/05 03:10:11;;;;;;;;;8.00;7.50;;;;;;;;5041826;28;11734;-76
2022/05/05 03:12:38;;;;;;;;;8.75;8.75;;;;;;;;5008408;28;10910;-76
2022/05/05 03:15:07;;;;;;;;;8.00;8.00;;;;;;;;5042683;28;10781;-76
2022/05/05 03:17:35;;;;;;;;;10.50;10.50;;;;;;;;5039938;28;12462;-76
2022/05/05 03:20:04;;;;;;;;;7.00;7.00;;;;;;;;5037396;28;10726;-77
2022/05/05 03:22:31;;;;;;;;;8.00;8.00;;;;;;;;5040782;28;10809;-76
2022/05/05 03:25:00;;;;;;;;;12.75;12.75;;;;;;;;5041009;28;10807;-76
2022/05/05 03:27:28;;;;;;;;;8.75;8.25;;;;;;;;5021816;28;10876;-76
2022/05/05 03:29:55;;;;;;;;;7.25;7.25;;;;;;;;5019571;28;10674;-76
2022/05/05 03:32:22;;;;;;;;;10.50;10.50;;;;;;;;5041292;28;10430;-76
2022/05/05 03:34:50;;;;;;;;;10.75;9.50;;;;;;;;5039680;28;10503;-76
2022/05/05 03:37:19;;;;;;;;;9.00;9.00;;;;;;;;5042745;28;10538;-77
2022/05/05 03:39:46;;;;;;;;;8.00;8.00;;;;;;;;5035464;28;10466;-76
2022/05/05 03:42:13;;;;;;;;;9.25;6.25;;;;;;;;5040711;28;10445;-76
2022/05/05 03:44:40;;;;;;;;;7.50;7.50;;;;;;;;5041546;28;10342;-76
2022/05/05 03:47:08;;;;;;;;;11.50;9.00;;;;;;;;5041396;28;10338;-75
2022/05/05 03:49:35;;;;;;;;;9.75;8.00;;;;;;;;5038204;28;10538;-76
2022/05/05 03:52:02;;;;;;;;;9.50;7.75;;;;;;;;5040134;28;10496;-76
2022/05/05 03:54:31;;;;;;;;;8.75;8.25;;;;;;;;5042086;28;10381;-76
2022/05/05 03:56:58;;;;;;;;;13.00;9.25;;;;;;;;5040058;28;10426;-76
2022/05/05 03:59:25;;;;;;;;;9.75;9.75;;;;;;;;5040814;28;11575;-76
2022/05/05 04:01:53;;;;;;;;;9.00;9.00;;;;;;;;5039086;28;10307;-76
2022/05/05 04:04:20;;;;;;;;;9.75;9.75;;;;;;;;5021871;28;10373;-76
2022/05/05 04:06:48;;;;;;;;;11.00;8.75;;;;;;;;5041952;28;10385;-75
2022/05/05 04:09:15;;;;;;;;;9.25;7.25;;;;;;;;5042565;28;10359;-75
2022/05/05 04:11:44;;;;;;;;;9.75;8.75;;;;;;;;5042187;28;10316;-75
2022/05/05 04:14:11;;;;;;;;;15.75;12.75;;;;;;;;5040580;28;10388;-76
2022/05/05 04:16:38;;;;;;;;;14.50;12.00;;;;;;;;5042679;28;10486;-76
2022/05/05 04:19:05;;;;;;;;;11.75;9.00;;;;;;;;5040407;28;10679;-76
2022/05/05 04:21:33;;;;;;;;;10.50;10.50;;;;;;;;5042621;28;10428;-77
2022/05/05 04:24:00;;;;;;;;;12.75;11.25;;;;;;;;5041576;28;10404;-77
2022/05/05 04:26:29;;;;;;;;;17.50;10.75;;;;;;;;5040819;28;10567;-77
2022/05/05 04:28:58;;;;;;;;;9.50;9.50;;;;;;;;5039521;28;10508;-77
2022/05/05 04:31:28;;;;;;;;;7.50;7.50;;;;;;;;5036496;28;10771;-76
2022/05/05 04:33:56;;;;;;;;;8.50;8.50;;;;;;;;5039755;28;10496;-76
2022/05/05 04:36:23;;;;;;;;;8.00;6.50;;;;;;;;5038178;28;10510;-75
2022/05/05 04:38:50;;;;;;;;;10.25;10.25;;;;;;;;5045796;28;10490;-76
2022/05/05 04:41:18;;;;;;;;;12.00;12.00;;;;;;;;5043583;28;10668;-74
2022/05/05 04:43:45;;;;;;;;;18.50;13.25;;;;;;;;5043110;28;10674;-75
2022/05/05 04:46:14;;;;;;;;;15.75;13.00;;;;;;;;5043743;28;10482;-75
2022/05/05 04:48:41;;;;;;;;;20.25;14.25;;;;;;;;5043638;28;11267;-74
2022/05/05 04:51:08;;;;;;;;;16.75;15.00;;;;;;;;5044276;28;10719;-74
2022/05/05 04:53:36;;;;;;;;;18.75;14.75;;;;;;;;5040065;28;10704;-80
2022/05/05 04:56:03;;;;;;;;;19.75;15.75;;;;;;;;5044463;28;11182;-81
2022/05/05 04:58:33;;;;;;;;;23.00;20.75;;;;;;;;5047403;28;10462;-80
2022/05/05 05:01:01;;;;;;;;;20.00;18.00;;;;;;;;5041229;28;10407;-79
2022/05/05 05:03:40;;;;;;;;;19.00;16.00;;;;;;;;5043058;28;11260;-80
2022/05/05 05:06:08;;;;;;;;;21.75;18.50;;;;;;;;5042524;28;10545;-77
2022/05/05 05:08:36;;;;;;;;;17.75;17.75;;;;;;;;5044547;28;10438;-77
2022/05/05 05:11:03;;;;;;;;;22.00;20.00;;;;;;;;5041397;28;10446;-81
2022/05/05 05:13:31;;;;;;;;;13.50;13.50;;;;;;;;5044221;28;10563;-78
2022/05/05 05:15:58;;;;;;;;;17.25;17.25;;;;;;;;5041317;28;10535;-79
2022/05/05 05:18:25;;;;;;;;;17.75;13.75;;;;;;;;5035839;28;10625;-78
2022/05/05 05:20:54;;;;;;;;;19.00;19.00;;;;;;;;5042564;28;10516;-77
2022/05/05 05:23:22;;;;;;;;;20.25;20.25;;;;;;;;5044021;28;10611;-78
2022/05/05 05:25:49;;;;;;;;;21.00;19.00;;;;;;;;5044406;28;11412;-80
2022/05/05 05:28:17;;;;;;;;;20.50;16.25;;;;;;;;5043821;28;10747;-77
2022/05/05 05:30:44;;;;;;;;;20.00;15.50;;;;;;;;5026488;28;10454;-81
2022/05/05 05:33:12;;;;;;;;;14.75;13.00;;;;;;;;5041651;28;11395;-83
2022/05/05 05:35:39;;;;;;;;;14.25;14.25;;;;;;;;5027675;28;10446;-79
2022/05/05 05:38:09;;;;;;;;;21.25;17.75;;;;;;;;5041603;28;10360;-77
2022/05/05 05:40:36;;;;;;;;;16.50;16.50;;;;;;;;5043135;28;10446;-78
2022/05/05 05:43:03;;;;;;;;;17.25;16.00;;;;;;;;5043747;28;10495;-77
2022/05/05 05:45:31;;;;;;;;;15.00;15.00;;;;;;;;5044799;28;10592;-84
2022/05/05 05:47:58;;;;;;;;;17.75;14.00;;;;;;;;5037647;28;10219;-78
2022/05/05 05:50:27;;;;;;;;;14.00;11.75;;;;;;;;5040084;28;10149;-81
2022/05/05 05:52:54;;;;;;;;;14.75;14.00;;;;;;;;5044613;28;10186;-77
2022/05/05 05:55:23;;;;;;;;;16.75;14.00;;;;;;;;5041949;28;11129;-78
2022/05/05 05:57:51;;;;;;;;;13.25;11.25;;;;;;;;5045387;28;11356;-80
2022/05/05 06:00:19;;;;;;;;;22.00;14.75;;;;;;;;5043583;28;10147;-83
2022/05/05 06:05:31;;;;;;;;;21.75;20.25;;;;;;;;5037088;28;10185;-80
2022/05/05 06:07:59;;;;;;;;;20.75;20.75;;;;;;;;5023542;28;10265;-78
2022/05/05 06:10:28;;;;;;;;;18.25;17.00;;;;;;;;5044513;28;10273;-81
2022/05/05 06:12:56;;;;;;;;;25.75;23.25;;;;;;;;5032282;28;10280;-78
2022/05/05 06:15:24;;;;;;;;;22.75;19.00;;;;;;;;5022167;28;10394;-78
2022/05/05 06:17:52;;;;;;;;;22.75;17.25;;;;;;;;5040557;28;10456;-79
2022/05/05 06:20:20;;;;;;;;;30.50;25.50;;;;;;;;5044103;28;10300;-80
2022/05/05 06:22:47;;;;;;;;;26.75;21.00;;;;;;;;5043638;28;10379;-76
2022/05/05 06:25:15;;;;;;;;;27.00;21.50;;;;;;;;5029771;28;10719;-78
2022/05/05 06:27:44;;;;;;;;;23.50;18.75;;;;;;;;5043323;28;10560;-77
2022/05/05 06:30:13;;;;;;;;;28.50;23.25;;;;;;;;5040545;28;11166;-77
2022/05/05 06:32:40;;;;;;;;;25.25;24.00;;;;;;;;5042662;28;10676;-77
2022/05/05 06:35:09;;;;;;;;;25.75;22.50;;;;;;;;5042611;28;10537;-81
2022/05/05 06:37:36;;;;;;;;;20.25;20.25;;;;;;;;5043888;28;10558;-76
2022/05/05 06:40:04;;;;;;;;;30.75;26.75;;;;;;;;5037932;28;10472;-76
2022/05/05 06:42:32;;;;;;;;;27.50;25.00;;;;;;;;5024825;28;10568;-76
2022/05/05 06:45:01;;;;;;;;;20.25;18.00;;;;;;;;5043746;28;10452;-76
2022/05/05 06:47:29;;;;;;;;;29.75;27.75;;;;;;;;5031059;28;10495;-77
2022/05/05 06:49:56;;;;;;;;;25.00;23.25;;;;;;;;5039428;28;10591;-79
2022/05/05 06:52:23;;;;;;;;;20.50;19.25;;;;;;;;5041082;28;10349;-77
2022/05/05 06:54:50;;;;;;;;;32.00;29.50;;;;;;;;5048331;28;10312;-82
2022/05/05 06:57:18;;;;;;;;;33.00;30.00;;;;;;;;5046468;28;10311;-80
2022/05/05 06:59:45;;;;;;;;;32.25;29.25;;;;;;;;5043696;28;11209;-78
2022/05/05 07:02:14;;;;;;;;;29.00;27.00;;;;;;;;5040231;28;10358;-77
2022/05/05 07:07:26;;;;;;;;;31.75;28.25;;;;;;;;5026941;28;11299;-80
2022/05/05 07:12:38;;;;;;;;;28.50;25.00;;;;;;;;5041689;28;10185;-76
2022/05/05 07:15:08;;;;;;;;;28.75;26.75;;;;;;;;5042496;28;10392;-74
2022/05/05 07:17:36;;;;;;;;;29.00;26.75;;;;;;;;5021267;28;10309;-75
2022/05/05 07:20:04;;;;;;;;;24.50;22.00;;;;;;;;5040515;28;10271;-75
2022/05/05 07:22:32;;;;;;;;;35.25;31.00;;;;;;;;5022256;28;10067;-75
2022/05/05 07:24:59;;;;;;;;;27.75;26.00;;;;;;;;5035544;28;10149;-74
2022/05/05 07:27:27;;;;;;;;;23.75;21.25;;;;;;;;5022748;28;10112;-74
2022/05/05 07:29:54;;;;;;;;;28.75;27.00;;;;;;;;5041544;28;10107;-75
2022/05/05 07:32:22;;;;;;;;;25.50;22.50;;;;;;;;5021998;28;9952;-76
2022/05/05 07:34:50;;;;;;;;;27.75;25.50;;;;;;;;5040211;28;10540;-75
2022/05/05 07:37:18;;;;;;;;;31.75;25.25;;;;;;;;5039287;28;10035;-77
2022/05/05 07:39:46;;;;;;;;;27.00;23.75;;;;;;;;5036591;28;9955;-78
2022/05/05 07:42:13;;;;;;;;;20.75;20.75;;;;;;;;5039178;28;9770;-77
2022/05/05 07:44:40;;;;;;;;;24.25;21.75;;;;;;;;5011665;28;9786;-78
2022/05/05 07:47:08;;;;;;;;;27.25;25.00;;;;;;;;5041811;28;9743;-76
2022/05/05 07:49:35;;;;;;;;;25.50;22.75;;;;;;;;5036024;28;9747;-78
2022/05/05 07:52:05;;;;;;;;;26.00;24.00;;;;;;;;5008952;28;9641;-77
2022/05/05 07:54:44;;;;;;;;;20.50;20.50;;;;;;;;5021189;28;9508;-78
2022/05/05 07:57:13;;;;;;;;;24.75;22.25;;;;;;;;5023842;28;9508;-78
2022/05/05 07:59:42;;;;;;;;;26.50;24.25;;;;;;;;5027292;28;9564;-78
2022/05/05 08:02:13;;;;;;;;;32.25;29.25;;;;;;;;5019497;28;9526;-78
2022/05/05 08:04:41;;;;;;;;;26.50;22.75;;;;;;;;5029150;28;9737;-78
2022/05/05 08:07:10;;;;;;;;;30.25;28.00;;;;;;;;5020464;28;9545;-78
2022/05/05 08:09:38;;;;;;;;;25.50;20.25;;;;;;;;5033867;28;9646;-77
2022/05/05 08:12:06;;;;;;;;;25.33;25.33;;;;;;;;5039385;28;9446;-77
2022/05/05 08:14:34;;;;;;;;;26.00;22.00;;;;;;;;5033350;28;9404;-78
2022/05/05 08:17:01;;;;;;;;;22.00;20.67;;;;;;;;5038977;28;9418;-77
2022/05/05 08:19:29;;;;;;;;;28.33;21.33;;;;;;;;5034541;28;9977;-80
2022/05/05 08:21:56;;;;;;;;;20.33;18.33;;;;;;;;5038333;28;9196;-78
2022/05/05 08:29:54;;;;;;;;;21.00;20.33;;;;;;;;5034365;28;9397;-76
2022/05/05 08:32:21;;;;;;;;;21.33;20.33;;;;;;;;5036307;28;9301;-76
2022/05/05 08:34:48;;;;;;;;;27.67;23.33;;;;;;;;5030555;28;9200;-78
2022/05/05 08:37:16;;;;;;;;;22.33;20.00;;;;;;;;5039091;28;9053;-76
2022/05/05 08:39:44;;;;;;;;;21.67;21.67;;;;;;;;5034599;28;9847;-76
2022/05/05 08:42:12;;;;;;;;;22.33;21.00;;;;;;;;5035132;28;9163;-76
2022/05/05 08:44:39;;;;;;;;;20.67;18.33;;;;;;;;5038677;28;9216;-77
2022/05/05 08:47:08;;;;;;;;;25.00;21.00;;;;;;;;5037783;28;9127;-77
2022/05/05 08:49:37;;;;;;;;;13.33;12.00;;;;;;;;5035106;28;9144;-76
2022/05/05 08:52:05;;;;;;;;;22.75;21.75;;;;;;;;5039018;28;9040;-75
2022/05/05 08:54:34;;;;;;;;;22.50;18.00;;;;;;;;5033880;28;9028;-77
2022/05/05 08:57:02;;;;;;;;;18.75;16.50;;;;;;;;5040029;28;8882;-79
2022/05/05 08:59:31;;;;;;;;;20.00;19.75;;;;;;;;5036170;28;8843;-77
2022/05/05 09:01:58;;;;;;;;;15.75;15.75;;;;;;;;5038746;28;8839;-77
2022/05/05 09:04:25;;;;;;;;;11.50;11.00;;;;;;;;5040490;28;8870;-77
2022/05/05 09:06:54;;;;;;;;;18.75;17.00;;;;;;;;5038269;28;8889;-76
2022/05/05 09:09:27;;;;;;;;;13.00;13.00;;;;;;;;5039877;28;8874;-77
2022/05/05 09:12:14;;;;;;;;;14.75;14.75;;;;;;;;5037566;28;8862;-78
2022/05/05 09:14:44;;;;;;;;;15.00;12.25;;;;;;;;5040116;28;9913;-75
2022/05/05 09:17:14;;;;;;;;;13.00;13.00;;;;;;;;5040871;28;8913;-78
2022/05/05 09:19:42;;;;;;;;;10.75;10.75;;;;;;;;5039351;28;8903;-76
2022/05/05 09:22:12;;;;;;;;;13.00;13.00;;;;;;;;5032335;28;8880;-78
2022/05/05 09:24:43;;;;;;;;;10.00;9.75;;;;;;;;5040724;28;8882;-78
2022/05/05 09:27:28;;;;;;;;;13.50;13.50;;;;;;;;5044610;28;8874;-77
2022/05/05 09:30:01;;;;;;;;;8.75;8.75;;;;;;;;5043320;28;8886;-78
2022/05/05 09:32:30;;;;;;;;;12.75;10.50;;;;;;;;5042470;28;8834;-79
2022/05/05 09:34:58;;;;;;;;;12.75;12.75;;;;;;;;5043150;28;8871;-79
2022/05/05 09:37:26;;;;;;;;;11.00;11.00;;;;;;;;5024003;28;8896;-75
2022/05/05 09:39:57;;;;;;;;;13.50;10.50;;;;;;;;5038577;28;8969;-78
2022/05/05 09:42:40;;;;;;;;;12.50;12.50;;;;;;;;5043332;28;8871;-77
2022/05/05 09:45:20;;;;;;;;;11.50;9.75;;;;;;;;5042451;28;9698;-77
2022/05/05 09:47:51;;;;;;;;;10.25;10.25;;;;;;;;5043944;28;8862;-76
2022/05/05 09:50:20;;;;;;;;;12.25;9.50;;;;;;;;5017823;28;9081;-79
2022/05/05 09:58:23;;;;;;;;;12.50;9.00;;;;;;;;5041999;28;8839;-80
2022/05/05 10:01:05;;;;;;;;;7.00;7.00;;;;;;;;5035642;28;8843;-74
2022/05/05 10:06:29;;;;;;;;;5.50;5.50;;;;;;;;5037586;28;8874;-82
2022/05/05 10:08:57;;;;;;;;;7.50;6.25;;;;;;;;5042567;28;8863;-78
2022/05/05 10:11:25;;;;;;;;;6.25;5.25;;;;;;;;5034047;28;9878;-77
2022/05/05 10:13:56;;;;;;;;;6.75;6.75;;;;;;;;5035233;28;8978;-79
2022/05/05 10:16:23;;;;;;;;;5.00;5.00;;;;;;;;5038005;28;9699;-78
2022/05/05 10:18:52;;;;;;;;;4.50;4.50;;;;;;;;5043519;28;8980;-81
2022/05/05 10:21:37;;;;;;;;;5.75;5.75;;;;;;;;5042545;28;9640;-75
2022/05/05 10:24:12;;;;;;;;;3.75;3.25;;;;;;;;5040664;28;8910;-83
2022/05/05 10:26:40;;;;;;;;;5.75;4.75;;;;;;;;5043162;28;9624;-78
2022/05/05 10:29:35;;;;;;;;;3.75;3.75;;;;;;;;5041519;28;8866;-82
2022/05/05 10:32:08;;;;;;;;;4.00;4.00;;;;;;;;5037778;28;8814;-76
2022/05/05 10:34:37;;;;;;;;;4.00;4.00;;;;;;;;5037291;28;8856;-81
2022/05/05 10:37:06;;;;;;;;;4.25;4.25;;;;;;;;5043488;28;8936;-78
2022/05/05 10:39:47;;;;;;;;;4.25;4.25;;;;;;;;5043521;28;8993;-84
2022/05/05 10:42:20;;;;;;;;;6.50;6.25;;;;;;;;5042549;28;8870;-77
2022/05/05 10:45:12;;;;;;;;;5.25;4.50;;;;;;;;5048647;28;8870;-81
2022/05/05 10:48:16;;;;;;;;;4.00;4.00;;;;;;;;5035925;28;8960;-79
2022/05/05 10:50:53;;;;;;;;;6.00;6.00;;;;;;;;5020177;28;8898;-83
2022/05/05 10:53:32;;;;;;;;;7.00;4.50;;;;;;;;5025669;28;8878;-84
2022/05/05 10:56:00;;;;;;;;;7.00;6.00;;;;;;;;5042547;28;8984;-78
2022/05/05 10:59:13;;;;;;;;;6.25;6.25;;;;;;;;5044867;28;9028;-82
2022/05/05 11:02:01;;;;;;;;;6.50;6.50;;;;;;;;5003063;28;8819;-81
2022/05/05 11:04:32;;;;;;;;;9.00;7.00;;;;;;;;5025086;28;8861;-76
2022/05/05 11:07:30;;;;;;;;;5.00;5.00;;;;;;;;5021253;28;8882;-82
2022/05/05 11:10:01;;;;;;;;;4.50;4.50;;;;;;;;5022279;28;8955;-81
2022/05/05 11:12:34;;;;;;;;;5.75;5.75;;;;;;;;5028675;28;8892;-82
2022/05/05 11:23:44;;;;;;;;;5.00;5.00;;;;;;;;5007163;28;8848;-78
2022/05/05 11:26:14;;;;;;;;;6.00;6.00;;;;;;;;5008815;28;8877;-80
2022/05/05 11:28:42;;;;;;;;;6.00;6.00;;;;;;;;5021559;28;8889;-80
2022/05/05 11:31:20;;;;;;;;;7.00;6.25;;;;;;;;5019906;28;9619;-81
2022/05/05 11:34:05;;;;;;;;;6.00;6.00;;;;;;;;5007639;28;8869;-81
2022/05/05 11:36:34;;;;;;;;;6.00;6.00;;;;;;;;5022741;28;8854;-83
2022/05/05 11:39:02;;;;;;;;;6.00;6.00;;;;;;;;5021313;28;8881;-78
2022/05/05 11:41:30;;;;;;;;;6.00;6.00;;;;;;;;5013207;28;8868;-81
2022/05/05 11:44:17;;;;;;;;;7.25;7.25;;;;;;;;5018315;28;8872;-80
2022/05/05 11:46:45;;;;;;;;;8.00;7.00;;;;;;;;5019198;28;9770;-80
2022/05/05 11:49:14;;;;;;;;;6.00;6.00;;;;;;;;5021399;28;8873;-83
2022/05/05 11:51:41;;;;;;;;;6.75;6.50;;;;;;;;5018553;28;8873;-81
2022/05/05 11:54:10;;;;;;;;;6.00;6.00;;;;;;;;5015809;28;8919;-81
2022/05/05 11:56:38;;;;;;;;;9.00;9.00;;;;;;;;5013015;28;8873;-80
2022/05/05 12:02:04;;;;;;;;;7.75;7.00;;;;;;;;5015951;28;8802;-80
2022/05/05 12:04:35;;;;;;;;;8.00;8.00;;;;;;;;5018453;28;8882;-84
2022/05/05 12:07:04;;;;;;;;;8.00;8.00;;;;;;;;5035630;28;8854;-84
2022/05/05 12:09:31;;;;;;;;;6.00;6.00;;;;;;;;5039222;28;8878;-82
2022/05/05 12:12:09;;;;;;;;;8.00;7.00;;;;;;;;5040811;28;8878;-81
2022/05/05 12:14:41;;;;;;;;;10.75;9.25;;;;;;;;5019438;28;8888;-81
2022/05/05 12:17:12;;;;;;;;;11.00;9.25;;;;;;;;5041544;28;9036;-80
2022/05/05 12:19:48;;;;;;;;;7.00;7.00;;;;;;;;5034114;28;8867;-80
2022/05/05 12:22:21;;;;;;;;;7.25;7.25;;;;;;;;5036158;28;8872;-80
2022/05/05 12:24:48;;;;;;;;;9.50;8.25;;;;;;;;5021316;28;8897;-79
2022/05/05 12:27:15;;;;;;;;;8.25;8.00;;;;;;;;5032397;28;8997;-80
2022/05/05 12:29:44;;;;;;;;;8.00;8.00;;;;;;;;5038300;28;8892;-80
2022/05/05 12:32:15;;;;;;;;;9.75;8.00;;;;;;;;5038836;28;8814;-80
2022/05/05 12:34:43;;;;;;;;;8.00;8.00;;;;;;;;5034799;28;8889;-79
2022/05/05 12:37:14;;;;;;;;;9.25;9.25;;;;;;;;5037158;28;8854;-80
2022/05/05 12:39:52;;;;;;;;;9.75;9.75;;;;;;;;5034089;28;8893;-81
2022/05/05 12:42:22;;;;;;;;;8.75;8.75;;;;;;;;5016854;28;8870;-80
2022/05/05 12:44:50;;;;;;;;;9.00;9.00;;;;;;;;5035232;28;8858;-80
2022/05/05 12:47:23;;;;;;;;;10.75;10.00;;;;;;;;5032410;28;8902;-79
2022/05/05 12:49:50;;;;;;;;;11.50;9.75;;;;;;;;5035970;28;8916;-80
2022/05/05 13:00:51;;;;;;;;;9.50;9.50;;;;;;;;5029922;28;8783;-79
2022/05/05 13:03:21;;;;;;;;;10.00;8.75;;;;;;;;5038649;28;8850;-80
2022/05/05 13:05:48;;;;;;;;;8.75;8.25;;;;;;;;5036352;28;8894;-79
2022/05/05 13:08:17;;;;;;;;;8.75;8.75;;;;;;;;5041394;28;8858;-80
2022/05/05 13:10:45;;;;;;;;;9.00;9.00;;;;;;;;5039409;28;9600;-80
2022/05/05 13:13:13;;;;;;;;;7.20;7.20;;;;;;;;5043676;28;9435;-79
2022/05/05 13:15:41;;;;;;;;;10.00;10.00;;;;;;;;5041895;28;8884;-79
2022/05/05 13:18:08;;;;;;;;;7.25;7.25;;;;;;;;5039352;28;8878;-77
2022/05/05 13:20:36;;;;;;;;;9.00;9.00;;;;;;;;5035770;28;8881;-80
2022/05/05 13:23:04;;;;;;;;;9.00;9.00;;;;;;;;5040974;28;8854;-82
2022/05/05 13:25:33;;;;;;;;;8.75;8.75;;;;;;;;5043490;28;8982;-80
2022/05/05 13:28:02;;;;;;;;;10.50;10.50;;;;;;;;5043289;28;8878;-79
2022/05/05 13:30:29;;;;;;;;;10.75;10.00;;;;;;;;5049017;28;8802;-77
2022/05/05 13:32:57;;;;;;;;;10.50;10.50;;;;;;;;5019656;28;8843;-81
2022/05/05 13:35:24;;;;;;;;;9.50;9.50;;;;;;;;5039008;28;9000;-80
2022/05/05 13:37:52;;;;;;;;;11.75;11.75;;;;;;;;5043118;28;8851;-81
2022/05/05 13:40:19;;;;;;;;;11.25;10.00;;;;;;;;5043869;28;8870;-80
2022/05/05 13:42:48;;;;;;;;;10.25;9.00;;;;;;;;5031376;28;9043;-80
2022/05/05 13:45:15;;;;;;;;;11.75;11.75;;;;;;;;5034169;28;8879;-77
2022/05/05 13:47:42;;;;;;;;;9.75;9.75;;;;;;;;5040889;28;8920;-80
2022/05/05 13:50:10;;;;;;;;;11.50;11.50;;;;;;;;5035623;28;8987;-83
2022/05/05 13:52:40;;;;;;;;;11.75;10.00;;;;;;;;5032460;28;8910;-76
2022/05/05 13:55:08;;;;;;;;;9.00;9.00;;;;;;;;5042368;28;8871;-79
2022/05/05 13:57:36;;;;;;;;;7.00;7.00;;;;;;;;5043186;28;8878;-80
2022/05/05 14:00:06;;;;;;;;;11.25;11.25;;;;;;;;5023434;28;8866;-78
2022/05/05 14:02:33;;;;;;;;;11.00;11.00;;;;;;;;5021717;28;8799;-78
2022/05/05 14:05:01;;;;;;;;;10.25;9.75;;;;;;;;5040507;28;8875;-81
2022/05/05 14:13:12;;;;;;;;;12.00;12.00;;;;;;;;4957124;28;8851;-83
2022/05/05 14:15:41;;;;;;;;;12.75;11.00;;;;;;;;4998926;28;8862;-82
2022/05/05 14:18:08;;;;;;;;;14.00;11.75;;;;;;;;5040508;28;8913;-80
2022/05/05 14:20:36;;;;;;;;;10.25;10.25;;;;;;;;5036362;28;9655;-81
2022/05/05 14:23:03;;;;;;;;;11.00;10.00;;;;;;;;5023757;28;9640;-80
2022/05/05 14:25:31;;;;;;;;;10.00;10.00;;;;;;;;5039000;28;8854;-78
2022/05/05 14:27:58;;;;;;;;;12.75;12.75;;;;;;;;5022813;28;8866;-79
2022/05/05 14:30:26;;;;;;;;;9.80;8.60;;;;;;;;5039588;28;8797;-81
2022/05/05 14:32:54;;;;;;;;;9.80;9.80;;;;;;;;5041457;28;9707;-79
2022/05/05 14:35:22;;;;;;;;;12.60;12.60;;;;;;;;5040906;28;8888;-75
2022/05/05 14:37:49;;;;;;;;;11.20;9.80;;;;;;;;5039895;28;8858;-79
2022/05/05 14:40:17;;;;;;;;;9.00;9.00;;;;;;;;5038117;28;8898;-78
2022/05/05 14:42:44;;;;;;;;;11.60;11.60;;;;;;;;5040131;28;8874;-79
2022/05/05 14:45:17;;;;;;;;;10.80;10.80;;;;;;;;5040821;28;8935;-78
2022/05/05 14:47:45;;;;;;;;;10.40;9.20;;;;;;;;5040673;28;8862;-80
2022/05/05 14:50:13;;;;;;;;;10.20;10.20;;;;;;;;5036540;28;8890;-78
2022/05/05 14:52:41;;;;;;;;;9.40;9.40;;;;;;;;5041256;28;8865;-78
2022/05/05 14:55:09;;;;;;;;;11.40;9.80;;;;;;;;5038985;28;8890;-77
2022/05/05 14:57:37;;;;;;;;;10.40;10.40;;;;;;;;5041488;28;8889;-79
2022/05/05 15:00:06;;;;;;;;;9.00;9.00;;;;;;;;5039735;28;8952;-80
2022/05/05 15:02:33;;;;;;;;;10.00;10.00;;;;;;;;5041499;28;8867;-83
2022/05/05 15:05:01;;;;;;;;;9.40;9.40;;;;;;;;5022771;28;8847;-78
2022/05/05 15:07:29;;;;;;;;;8.00;8.00;;;;;;;;5035712;28;8881;-80
2022/05/05 15:09:56;;;;;;;;;8.60;8.60;;;;;;;;5042629;28;9133;-84
2022/05/05 15:12:24;;;;;;;;;8.00;8.00;;;;;;;;5041763;28;9849;-77
2022/05/05 15:14:52;;;;;;;;;10.20;10.20;;;;;;;;5042109;28;9712;-78
2022/05/05 15:17:19;;;;;;;;;9.20;9.20;;;;;;;;5041363;28;8878;-81
2022/05/05 15:19:47;;;;;;;;;7.40;6.00;;;;;;;;5040068;28;8937;-80
2022/05/05 15:22:14;;;;;;;;;11.00;9.00;;;;;;;;5040850;28;8862;-81
2022/05/05 15:25:02;;;;;;;;;7.00;7.00;;;;;;;;5041743;28;8943;-81
2022/05/05 15:27:30;;;;;;;;;8.40;8.40;;;;;;;;5041900;28;8879;-82
2022/05/05 15:29:57;;;;;;;;;8.80;8.80;;;;;;;;5040458;28;8899;-82
2022/05/05 15:32:27;;;;;;;;;8.60;8.60;;;;;;;;5040253;28;8830;-82
2022/05/05 15:34:57;;;;;;;;;9.00;9.00;;;;;;;;5036169;28;8847;-83
2022/05/05 15:37:25;;;;;;;;;10.60;9.40;;;;;;;;5024381;28;8878;-80
2022/05/05 15:39:54;;;;;;;;;7.40;7.40;;;;;;;;5038049;28;8874;-85
2022/05/05 15:42:22;;;;;;;;;8.40;7.80;;;;;;;;5038649;28;8825;-83
2022/05/05 15:44:53;;;;;;;;;14.00;10.40;;;;;;;;5039527;28;8956;-85
2022/05/05 15:47:21;;;;;;;;;10.00;8.40;;;;;;;;5040474;28;8918;-80